createdAt,value
2022-12-14T00:02:04.084Z,9216.00
2022-12-14T00:07:11.267Z,9216.00
2022-12-14T00:12:18.428Z,-72.00
2022-12-14T00:17:25.611Z,-108.00
2022-12-14T00:22:32.893Z,-72.00
2022-12-14T00:27:40.144Z,-72.00
2022-12-14T00:32:47.306Z,-72.00
2022-12-14T00:37:54.464Z,-72.00
2022-12-14T00:43:01.718Z,-72.00
2022-12-14T00:48:08.874Z,-72.00
2022-12-14T00:53:16.105Z,-108.00
2022-12-14T00:58:23.361Z,-72.00
2022-12-14T01:03:31.167Z,-72.00
2022-12-14T01:08:37.792Z,-72.00
2022-12-14T01:13:45.023Z,-72.00
2022-12-14T01:18:52.222Z,-72.00
2022-12-14T01:23:59.403Z,-72.00
2022-12-14T01:29:09.055Z,-72.00
2022-12-14T01:34:14.624Z,-72.00
2022-12-14T01:39:21.804Z,-72.00
2022-12-14T01:44:29.187Z,-108.00
2022-12-14T01:49:36.204Z,-72.00
2022-12-14T01:54:43.371Z,-72.00
2022-12-14T01:59:50.589Z,-72.00
2022-12-14T02:04:57.809Z,-108.00
2022-12-14T02:10:05.072Z,-72.00
2022-12-14T02:15:12.341Z,-72.00
2022-12-14T02:20:19.491Z,-72.00
2022-12-14T02:25:26.713Z,-72.00
2022-12-14T02:30:33.916Z,-72.00
2022-12-14T02:35:41.127Z,-72.00
2022-12-14T02:40:48.331Z,-72.00
2022-12-14T02:45:55.586Z,-72.00
2022-12-14T02:51:02.746Z,-72.00
2022-12-14T02:56:09.886Z,-72.00
2022-12-14T03:01:17.227Z,-72.00
2022-12-14T03:06:24.252Z,-72.00
2022-12-14T03:11:31.467Z,-108.00
2022-12-14T03:16:38.809Z,-108.00
2022-12-14T03:21:45.932Z,-72.00
2022-12-14T03:26:53.190Z,-72.00
2022-12-14T03:32:00.495Z,-108.00
2022-12-14T03:37:07.586Z,-108.00
2022-12-14T03:42:14.790Z,-72.00
2022-12-14T03:47:22.046Z,-72.00
2022-12-14T03:52:29.189Z,-72.00
2022-12-14T03:57:36.401Z,-108.00
2022-12-14T04:02:43.812Z,-72.00
2022-12-14T04:07:50.826Z,-72.00
2022-12-14T04:12:58.020Z,-72.00
2022-12-14T04:18:05.271Z,-72.00
2022-12-14T04:23:12.438Z,-108.00
2022-12-14T04:28:19.603Z,-72.00
2022-12-14T04:33:27.327Z,-72.00
2022-12-14T04:38:34.036Z,-72.00
2022-12-14T04:43:41.236Z,-108.00
2022-12-14T04:48:48.465Z,-72.00
2022-12-14T04:53:55.674Z,-72.00
2022-12-14T04:59:02.875Z,-72.00
2022-12-14T05:04:12.722Z,-108.00
2022-12-14T05:09:17.260Z,-72.00
2022-12-14T05:14:24.434Z,-108.00
2022-12-14T05:19:31.699Z,-72.00
2022-12-14T05:24:38.807Z,-108.00
2022-12-14T05:29:45.964Z,-72.00
2022-12-14T05:34:53.179Z,-72.00
2022-12-14T05:40:00.386Z,-72.00
2022-12-14T05:45:07.594Z,-72.00
2022-12-14T05:50:14.805Z,-72.00
2022-12-14T05:55:21.964Z,-72.00
2022-12-14T06:00:29.211Z,-72.00
2022-12-14T06:05:36.451Z,-72.00
2022-12-14T06:10:43.592Z,-72.00
2022-12-14T06:15:50.930Z,-72.00
2022-12-14T06:20:58.102Z,-72.00
2022-12-14T06:26:05.299Z,-72.00
2022-12-14T06:31:12.595Z,-72.00
2022-12-14T06:36:19.662Z,5508.00
2022-12-14T06:41:26.911Z,5256.00
2022-12-14T06:46:34.165Z,5220.00
2022-12-14T06:51:41.398Z,5076.00
2022-12-14T06:56:48.552Z,5112.00
2022-12-14T07:01:55.849Z,5040.00
2022-12-14T07:07:02.943Z,5076.00
2022-12-14T07:12:10.134Z,5076.00
2022-12-14T07:17:17.383Z,5112.00
2022-12-14T07:22:24.547Z,4896.00
2022-12-14T07:27:31.684Z,4968.00
2022-12-14T07:32:38.922Z,4860.00
2022-12-14T07:37:49.226Z,4860.00
2022-12-14T07:42:53.382Z,4896.00
2022-12-14T07:48:00.540Z,4896.00
2022-12-14T07:53:07.734Z,4788.00
2022-12-14T07:58:14.866Z,4824.00
2022-12-14T08:03:22.116Z,7488.00
2022-12-14T08:08:29.284Z,7668.00
2022-12-14T08:13:36.499Z,8172.00
2022-12-14T08:18:43.733Z,7740.00
2022-12-14T08:23:50.958Z,7740.00
2022-12-14T08:28:58.158Z,8676.00
2022-12-14T08:34:05.378Z,9900.00
2022-12-14T08:39:12.652Z,9432.00
2022-12-14T08:44:19.755Z,9144.00
2022-12-14T08:49:32.081Z,10764.00
2022-12-14T08:54:34.136Z,10188.00
2022-12-14T09:00:02.266Z,11160.00
2022-12-14T09:04:48.580Z,8604.00
2022-12-14T09:09:55.850Z,9252.00
2022-12-14T09:15:03.135Z,11052.00
2022-12-14T09:20:10.316Z,10584.00
2022-12-14T09:25:17.501Z,11844.00
2022-12-14T09:30:26.747Z,10476.00
2022-12-14T09:35:32.046Z,9540.00
2022-12-14T09:40:39.359Z,9756.00
2022-12-14T09:45:46.596Z,12996.00
2022-12-14T09:50:53.816Z,13860.00
2022-12-14T09:56:00.956Z,15120.00
2022-12-14T10:01:08.171Z,16524.00
2022-12-14T10:06:15.322Z,16200.00
2022-12-14T10:11:22.548Z,16020.00
2022-12-14T10:16:29.773Z,15732.00
2022-12-14T10:21:36.914Z,12672.00
2022-12-14T10:26:44.164Z,11232.00
2022-12-14T10:31:51.451Z,10908.00
2022-12-14T10:37:01.359Z,11556.00
2022-12-14T10:42:08.524Z,12132.00
2022-12-14T10:47:15.684Z,10908.00
2022-12-14T10:52:22.863Z,9360.00
2022-12-14T10:57:30.055Z,8676.00
2022-12-14T11:02:37.358Z,10656.00
2022-12-14T11:07:44.445Z,10440.00
2022-12-14T11:12:51.600Z,11520.00
2022-12-14T11:17:59.141Z,11484.00
2022-12-14T11:23:06.258Z,13896.00
2022-12-14T11:28:13.471Z,13320.00
2022-12-14T11:33:20.686Z,15336.00
2022-12-14T11:38:28.283Z,15408.00
2022-12-14T11:43:35.153Z,15120.00
2022-12-14T11:48:42.425Z,17460.00
2022-12-14T11:53:49.738Z,16380.00
2022-12-14T11:58:56.941Z,16092.00
2022-12-14T12:04:04.230Z,15660.00
2022-12-14T12:09:11.343Z,15480.00
2022-12-14T12:14:18.538Z,13896.00
2022-12-14T12:19:25.732Z,14832.00
2022-12-14T12:24:32.928Z,13896.00
2022-12-14T12:29:40.203Z,13212.00
2022-12-14T12:34:47.374Z,14256.00
2022-12-14T12:39:54.643Z,11700.00
2022-12-14T12:45:01.797Z,9756.00
2022-12-14T12:50:09.181Z,8316.00
2022-12-14T12:55:16.417Z,7920.00
2022-12-14T13:00:23.598Z,8172.00
2022-12-14T13:05:48.186Z,9684.00
2022-12-14T13:10:41.998Z,10332.00
2022-12-14T13:15:45.297Z,10404.00
2022-12-14T13:20:52.425Z,9972.00
2022-12-14T13:25:59.624Z,11340.00
2022-12-14T13:31:06.917Z,10512.00
2022-12-14T13:36:14.010Z,9756.00
2022-12-14T13:41:21.218Z,9468.00
2022-12-14T13:46:28.488Z,7128.00
2022-12-14T13:51:35.609Z,7200.00
2022-12-14T13:56:42.866Z,4608.00
2022-12-14T14:01:50.230Z,3888.00
2022-12-14T14:06:57.326Z,6120.00
2022-12-14T14:12:04.523Z,7236.00
2022-12-14T14:17:11.862Z,7560.00
2022-12-14T14:22:23.689Z,3420.00
2022-12-14T14:27:26.329Z,1728.00
2022-12-14T14:32:33.516Z,2196.00
2022-12-14T14:37:40.705Z,5544.00
2022-12-14T14:42:47.942Z,3348.00
2022-12-14T14:47:55.193Z,3888.00
2022-12-14T14:53:02.408Z,2448.00
2022-12-14T14:58:09.622Z,1728.00
2022-12-14T15:03:17.155Z,3132.00
2022-12-14T15:08:24.089Z,2268.00
2022-12-14T15:13:31.684Z,2088.00
2022-12-14T15:18:38.567Z,2340.00
2022-12-14T15:23:49.287Z,720.00
2022-12-14T15:28:52.936Z,360.00
2022-12-14T15:34:00.168Z,216.00
2022-12-14T15:39:07.345Z,144.00
2022-12-14T15:44:14.552Z,0.00
2022-12-14T15:49:21.754Z,-36.00
2022-12-14T15:54:28.893Z,-72.00
2022-12-14T15:59:36.100Z,-72.00
2022-12-14T16:04:43.302Z,-72.00
2022-12-14T16:09:51.096Z,-72.00
2022-12-14T16:14:57.666Z,-108.00
2022-12-14T16:20:04.915Z,-72.00
2022-12-14T16:25:12.068Z,-72.00
2022-12-14T16:30:19.284Z,-72.00
2022-12-14T16:35:26.525Z,-108.00
2022-12-14T16:40:33.677Z,-108.00
2022-12-14T16:45:41.287Z,-108.00
2022-12-14T16:50:57.374Z,-72.00
2022-12-14T16:55:56.031Z,-108.00
2022-12-14T17:01:04.119Z,-108.00
2022-12-14T17:06:11.184Z,-72.00
2022-12-14T17:11:18.382Z,-72.00
2022-12-14T17:16:25.680Z,-108.00
2022-12-14T17:21:33.087Z,-108.00
2022-12-14T17:26:40.405Z,-108.00
2022-12-14T17:31:47.881Z,-72.00
2022-12-14T17:36:55.630Z,-108.00
2022-12-14T17:42:03.214Z,-72.00
2022-12-14T17:47:10.633Z,-72.00
2022-12-14T17:52:18.262Z,-72.00
2022-12-14T17:57:27.076Z,-72.00
2022-12-14T18:02:34.664Z,-72.00
2022-12-14T18:07:41.924Z,-36.00
2022-12-14T18:12:49.509Z,-72.00
2022-12-14T18:17:57.543Z,-72.00
2022-12-14T18:23:05.182Z,-72.00
2022-12-14T18:28:12.771Z,-36.00
2022-12-14T18:33:20.381Z,-72.00
2022-12-14T18:38:28.020Z,-72.00
2022-12-14T18:43:40.212Z,-72.00
2022-12-14T18:48:43.228Z,-72.00
2022-12-14T18:53:50.965Z,-36.00
2022-12-14T18:58:58.657Z,504.00
2022-12-14T19:04:06.296Z,1764.00
2022-12-14T19:09:13.841Z,1764.00
2022-12-14T19:14:21.037Z,1728.00
2022-12-14T19:19:35.628Z,1692.00
2022-12-14T19:24:36.164Z,1692.00
2022-12-14T19:29:43.727Z,1728.00
2022-12-14T19:34:51.338Z,1332.00
2022-12-14T19:39:58.983Z,1368.00
2022-12-14T19:45:06.582Z,1368.00
2022-12-14T19:50:14.077Z,1296.00
2022-12-14T19:55:21.825Z,1296.00
2022-12-14T20:00:29.411Z,1296.00
2022-12-14T20:05:37.001Z,1224.00
2022-12-14T20:10:44.774Z,1224.00
2022-12-14T20:15:52.441Z,9072.00
2022-12-14T20:20:59.979Z,8676.00
2022-12-14T20:26:07.617Z,8676.00
2022-12-14T20:31:15.276Z,8820.00
2022-12-14T20:36:23.422Z,8712.00
2022-12-14T20:41:30.875Z,8640.00
2022-12-14T20:46:38.575Z,8316.00
2022-12-14T20:51:46.167Z,8280.00
2022-12-14T20:56:53.917Z,8208.00
2022-12-14T21:02:01.812Z,8244.00
2022-12-14T21:07:08.814Z,8244.00
2022-12-14T21:12:16.247Z,8172.00
2022-12-14T21:17:23.540Z,8244.00
2022-12-14T21:22:31.039Z,8532.00
2022-12-14T21:27:38.816Z,8460.00
2022-12-14T21:32:46.007Z,8244.00
2022-12-14T21:37:53.169Z,8604.00
2022-12-14T21:43:00.499Z,8496.00
2022-12-14T21:48:07.682Z,8172.00
2022-12-14T21:53:14.839Z,8460.00
2022-12-14T21:58:22.009Z,8352.00
2022-12-14T22:03:29.627Z,8136.00
2022-12-14T22:08:36.455Z,8208.00
2022-12-14T22:13:43.743Z,8316.00
2022-12-14T22:18:50.926Z,8424.00
2022-12-14T22:23:58.133Z,8136.00
2022-12-14T22:29:05.428Z,8604.00
2022-12-14T22:34:12.576Z,8244.00
2022-12-14T22:39:19.747Z,8064.00
2022-12-14T22:44:26.900Z,8064.00
2022-12-14T22:49:34.118Z,7992.00
2022-12-14T22:54:41.336Z,8532.00
2022-12-14T22:59:48.521Z,8568.00
2022-12-14T23:04:55.708Z,8244.00
2022-12-14T23:10:02.954Z,8172.00
2022-12-14T23:15:10.181Z,8244.00
2022-12-14T23:20:17.353Z,8388.00
2022-12-14T23:25:24.567Z,8136.00
2022-12-14T23:30:31.866Z,8280.00
2022-12-14T23:35:38.916Z,8388.00
2022-12-14T23:40:46.119Z,8136.00
2022-12-14T23:45:53.371Z,8460.00
2022-12-14T23:51:00.492Z,8388.00
2022-12-14T23:56:07.692Z,8280.00
